createdAt,value
2022-08-26T00:00:15.263Z,20.4953
2022-08-26T00:01:24.294Z,20.444946
2022-08-26T00:02:32.696Z,20.394592
2022-08-26T00:03:42.365Z,20.344238
2022-08-26T00:04:51.108Z,20.314026
2022-08-26T00:06:00.811Z,20.283813
2022-08-26T00:07:09.532Z,20.24353
2022-08-26T00:08:19.244Z,20.213318
2022-08-26T00:09:28.932Z,20.193176
2022-08-26T00:10:37.613Z,20.162964
2022-08-26T00:11:47.395Z,20.102539
2022-08-26T00:12:57.098Z,20.072327
2022-08-26T00:14:05.741Z,20.042114
2022-08-26T00:15:15.411Z,20.021973
2022-08-26T00:16:25.139Z,19.961548
2022-08-26T00:17:33.722Z,19.951477
2022-08-26T00:18:43.400Z,19.941406
2022-08-26T00:19:51.052Z,19.921265
2022-08-26T00:20:59.743Z,19.941406
2022-08-26T00:22:09.420Z,19.941406
2022-08-26T00:23:19.128Z,19.951477
2022-08-26T00:24:28.780Z,19.951477
2022-08-26T00:25:38.428Z,19.961548
2022-08-26T00:26:49.071Z,20.001831
2022-08-26T00:27:58.735Z,20.001831
2022-08-26T00:29:08.378Z,20.001831
2022-08-26T00:30:17.044Z,20.001831
2022-08-26T00:31:27.694Z,20.032043
2022-08-26T00:32:38.303Z,20.042114
2022-08-26T00:33:47.934Z,20.062256
2022-08-26T00:34:57.592Z,20.092468
2022-08-26T00:36:06.482Z,20.102539
2022-08-26T00:37:17.111Z,20.102539
2022-08-26T00:38:25.774Z,20.092468
2022-08-26T00:39:34.415Z,20.062256
2022-08-26T00:40:45.076Z,20.072327
2022-08-26T00:41:52.744Z,20.072327
2022-08-26T00:43:02.401Z,20.092468
2022-08-26T00:44:12.043Z,20.072327
2022-08-26T00:45:19.725Z,20.072327
2022-08-26T00:46:29.385Z,20.042114
2022-08-26T00:47:38.088Z,20.032043
2022-08-26T00:48:46.752Z,20.001831
2022-08-26T00:49:56.464Z,19.99176
2022-08-26T00:51:05.133Z,19.941406
2022-08-26T00:52:14.784Z,19.941406
2022-08-26T00:53:23.957Z,19.921265
2022-08-26T00:54:31.136Z,19.941406
2022-08-26T00:55:41.788Z,19.941406
2022-08-26T00:56:50.432Z,19.941406
2022-08-26T00:58:00.080Z,19.961548
2022-08-26T00:59:09.798Z,19.951477
2022-08-26T01:00:18.469Z,19.961548
2022-08-26T01:01:28.139Z,19.99176
2022-08-26T01:02:38.837Z,19.961548
2022-08-26T01:03:48.413Z,19.961548
2022-08-26T01:04:58.133Z,19.951477
2022-08-26T01:06:11.453Z,19.951477
2022-08-26T01:07:16.418Z,19.961548
2022-08-26T01:08:26.061Z,19.951477
2022-08-26T01:09:33.721Z,19.951477
2022-08-26T01:10:43.381Z,19.951477
2022-08-26T01:11:52.040Z,19.951477
2022-08-26T01:13:00.724Z,19.941406
2022-08-26T01:14:10.415Z,19.921265
2022-08-26T01:15:21.084Z,19.951477
2022-08-26T01:16:31.882Z,19.941406
2022-08-26T01:17:42.527Z,19.961548
2022-08-26T01:18:53.219Z,19.951477
2022-08-26T01:20:03.964Z,19.951477
2022-08-26T01:21:14.583Z,19.941406
2022-08-26T01:22:26.672Z,19.911194
2022-08-26T01:23:34.960Z,19.911194
2022-08-26T01:24:43.599Z,19.911194
2022-08-26T01:25:52.248Z,19.911194
2022-08-26T01:27:01.930Z,19.911194
2022-08-26T01:28:09.617Z,19.911194
2022-08-26T01:29:19.269Z,19.911194
2022-08-26T01:30:27.941Z,19.880981
2022-08-26T01:31:36.748Z,19.880981
2022-08-26T01:32:46.280Z,19.86084
2022-08-26T01:33:53.998Z,19.840698
2022-08-26T01:35:03.716Z,19.850769
2022-08-26T01:36:13.373Z,19.820557
2022-08-26T01:37:22.097Z,19.820557
2022-08-26T01:38:31.817Z,19.840698
2022-08-26T01:39:40.532Z,19.840698
2022-08-26T01:40:50.207Z,19.86084
2022-08-26T01:42:02.937Z,19.86084
2022-08-26T01:43:10.538Z,19.850769
2022-08-26T01:44:21.260Z,19.820557
2022-08-26T01:45:29.073Z,19.820557
2022-08-26T01:46:38.745Z,19.820557
2022-08-26T01:47:48.443Z,19.840698
2022-08-26T01:48:58.144Z,19.840698
2022-08-26T01:50:07.822Z,19.850769
2022-08-26T01:51:18.606Z,19.86084
2022-08-26T01:52:27.456Z,19.86084
2022-08-26T01:53:36.992Z,19.880981
2022-08-26T01:54:50.413Z,19.880981
2022-08-26T01:55:55.409Z,19.911194
2022-08-26T01:57:05.173Z,19.911194
2022-08-26T01:58:14.856Z,19.891052
2022-08-26T01:59:24.566Z,19.911194
2022-08-26T02:00:33.251Z,19.891052
2022-08-26T02:01:40.906Z,19.880981
2022-08-26T02:02:50.616Z,19.86084
2022-08-26T02:03:59.283Z,19.86084
2022-08-26T02:05:08.967Z,19.850769
2022-08-26T02:06:18.677Z,19.820557
2022-08-26T02:07:27.378Z,19.840698
2022-08-26T02:08:37.094Z,19.820557
2022-08-26T02:09:46.778Z,19.810486
2022-08-26T02:10:55.450Z,19.810486
2022-08-26T02:12:05.158Z,19.810486
2022-08-26T02:13:14.829Z,19.810486
2022-08-26T02:14:24.526Z,19.790344
2022-08-26T02:15:33.179Z,19.790344
2022-08-26T02:16:42.185Z,19.790344
2022-08-26T02:17:50.496Z,19.790344
2022-08-26T02:19:00.171Z,19.770203
2022-08-26T02:20:13.242Z,19.770203
2022-08-26T02:21:20.486Z,19.770203
2022-08-26T02:22:29.146Z,19.760132
2022-08-26T02:23:37.807Z,19.760132
2022-08-26T02:24:47.468Z,19.760132
2022-08-26T02:25:56.144Z,19.729919
2022-08-26T02:27:05.826Z,19.659424
2022-08-26T02:28:15.473Z,19.578857
2022-08-26T02:29:25.124Z,19.508362
2022-08-26T02:30:34.788Z,19.437866
2022-08-26T02:31:44.490Z,19.367371
2022-08-26T02:32:54.126Z,19.327087
2022-08-26T02:34:03.791Z,19.306946
2022-08-26T02:35:12.444Z,19.306946
2022-08-26T02:36:22.076Z,19.306946
2022-08-26T02:37:30.747Z,19.296875
2022-08-26T02:38:40.400Z,19.266663
2022-08-26T02:39:50.070Z,19.256592
2022-08-26T02:40:58.672Z,19.256592
2022-08-26T02:42:08.328Z,19.286804
2022-08-26T02:43:18.116Z,19.306946
2022-08-26T02:44:28.752Z,19.337158
2022-08-26T02:45:38.411Z,19.337158
2022-08-26T02:46:47.423Z,19.337158
2022-08-26T02:47:56.793Z,19.367371
2022-08-26T02:49:06.422Z,19.367371
2022-08-26T02:50:15.105Z,19.397583
2022-08-26T02:51:23.744Z,19.407654
2022-08-26T02:52:34.400Z,19.437866
2022-08-26T02:53:43.057Z,19.387512
2022-08-26T02:54:52.851Z,19.3573
2022-08-26T02:56:01.517Z,19.286804
2022-08-26T02:57:10.167Z,19.256592
2022-08-26T02:58:19.833Z,19.186096
2022-08-26T02:59:28.475Z,19.176025
2022-08-26T03:00:38.228Z,19.145813
2022-08-26T03:01:48.820Z,19.176025
2022-08-26T03:02:58.409Z,19.155884
2022-08-26T03:04:08.074Z,19.186096
2022-08-26T03:05:17.737Z,19.176025
2022-08-26T03:06:27.426Z,19.135742
2022-08-26T03:07:38.085Z,19.065247
2022-08-26T03:08:46.742Z,19.004822
2022-08-26T03:09:56.438Z,18.954468
2022-08-26T03:11:07.102Z,18.904114
2022-08-26T03:12:16.813Z,18.843689
2022-08-26T03:13:26.469Z,18.803406
2022-08-26T03:14:35.137Z,18.753052
2022-08-26T03:15:42.797Z,18.742981
2022-08-26T03:16:52.483Z,18.702698
2022-08-26T03:18:01.256Z,18.682556
2022-08-26T03:19:08.913Z,18.652344
2022-08-26T03:20:18.574Z,18.652344
2022-08-26T03:21:27.259Z,18.632202
2022-08-26T03:22:36.908Z,18.632202
2022-08-26T03:23:46.623Z,18.652344
2022-08-26T03:24:55.297Z,18.662415
2022-08-26T03:26:04.940Z,18.682556
2022-08-26T03:27:12.586Z,18.712769
2022-08-26T03:28:21.245Z,18.73291
2022-08-26T03:29:30.927Z,18.742981
2022-08-26T03:30:39.599Z,18.742981
2022-08-26T03:31:49.252Z,18.753052
2022-08-26T03:32:58.874Z,18.783264
2022-08-26T03:34:06.528Z,18.773193
2022-08-26T03:35:16.265Z,18.773193
2022-08-26T03:36:25.911Z,18.753052
2022-08-26T03:37:35.545Z,18.742981
2022-08-26T03:38:44.211Z,18.73291
2022-08-26T03:39:52.877Z,18.712769
2022-08-26T03:41:02.587Z,18.712769
2022-08-26T03:42:12.233Z,18.73291
2022-08-26T03:43:21.875Z,18.73291
2022-08-26T03:44:30.522Z,18.73291
2022-08-26T03:45:39.179Z,18.712769
2022-08-26T03:46:48.999Z,18.73291
2022-08-26T03:47:57.783Z,18.73291
2022-08-26T03:49:07.304Z,18.702698
2022-08-26T03:50:16.992Z,18.682556
2022-08-26T03:51:26.651Z,18.682556
2022-08-26T03:52:39.696Z,18.702698
2022-08-26T03:53:46.974Z,18.712769
2022-08-26T03:54:54.618Z,18.712769
2022-08-26T03:56:04.290Z,18.702698
2022-08-26T03:57:12.967Z,18.652344
2022-08-26T03:58:22.655Z,18.622131
2022-08-26T03:59:32.346Z,18.581848
2022-08-26T04:00:42.067Z,18.561707
2022-08-26T04:01:51.747Z,18.561707
2022-08-26T04:03:00.392Z,18.561707
2022-08-26T04:04:10.029Z,18.591919
2022-08-26T04:05:20.681Z,18.581848
2022-08-26T04:06:29.326Z,18.551636
2022-08-26T04:07:37.975Z,18.501282
2022-08-26T04:08:48.629Z,18.491211
2022-08-26T04:09:56.306Z,18.471069
2022-08-26T04:11:05.984Z,18.450928
2022-08-26T04:12:14.741Z,18.440857
2022-08-26T04:13:23.341Z,18.410645
2022-08-26T04:14:32.018Z,18.370361
2022-08-26T04:15:40.736Z,18.330078
2022-08-26T04:16:50.461Z,18.309937
2022-08-26T04:18:00.220Z,18.259583
2022-08-26T04:19:08.911Z,18.219299
2022-08-26T04:20:18.632Z,18.199158
2022-08-26T04:21:27.373Z,18.189087
2022-08-26T04:22:37.188Z,18.179016
2022-08-26T04:23:47.868Z,18.158875
2022-08-26T04:24:55.630Z,18.179016
2022-08-26T04:26:05.344Z,18.189087
2022-08-26T04:27:15.089Z,18.22937
2022-08-26T04:28:25.795Z,18.22937
2022-08-26T04:29:35.515Z,18.22937
2022-08-26T04:30:44.208Z,18.219299
2022-08-26T04:31:55.399Z,18.219299
2022-08-26T04:33:02.658Z,18.219299
2022-08-26T04:34:12.313Z,18.219299
2022-08-26T04:35:25.581Z,18.279724
2022-08-26T04:36:31.654Z,18.370361
2022-08-26T04:37:43.003Z,18.400574
2022-08-26T04:38:52.073Z,18.370361
2022-08-26T04:40:01.803Z,18.35022
2022-08-26T04:41:15.129Z,18.330078
2022-08-26T04:42:22.834Z,18.309937
2022-08-26T04:43:29.776Z,18.289795
2022-08-26T04:44:39.466Z,18.279724
2022-08-26T04:45:49.149Z,18.259583
2022-08-26T04:46:58.872Z,18.22937
2022-08-26T04:48:08.625Z,18.22937
2022-08-26T04:49:19.285Z,18.249512
2022-08-26T04:50:28.141Z,18.259583
2022-08-26T04:51:37.856Z,18.279724
2022-08-26T04:52:45.561Z,18.330078
2022-08-26T04:53:54.256Z,18.380432
2022-08-26T04:55:06.515Z,18.440857
2022-08-26T04:56:14.632Z,18.521423
2022-08-26T04:57:24.319Z,18.591919
2022-08-26T04:58:34.048Z,18.662415
2022-08-26T04:59:43.736Z,18.73291
2022-08-26T05:00:53.424Z,18.813477
2022-08-26T05:02:01.437Z,18.843689
2022-08-26T05:03:10.992Z,18.904114
2022-08-26T05:04:20.846Z,18.964539
2022-08-26T05:05:29.391Z,19.004822
2022-08-26T05:06:40.105Z,19.024963
2022-08-26T05:07:48.825Z,19.075317
2022-08-26T05:08:56.483Z,19.115601
2022-08-26T05:10:08.696Z,19.135742
2022-08-26T05:11:15.857Z,19.155884
2022-08-26T05:12:25.573Z,19.176025
2022-08-26T05:13:35.303Z,19.256592
2022-08-26T05:14:43.026Z,19.256592
2022-08-26T05:15:54.411Z,19.286804
2022-08-26T05:17:03.363Z,19.296875
2022-08-26T05:18:13.998Z,19.306946
2022-08-26T05:19:23.691Z,19.286804
2022-08-26T05:20:33.332Z,19.216309
2022-08-26T05:21:42.975Z,19.135742
2022-08-26T05:22:52.639Z,19.10553
2022-08-26T05:24:00.303Z,19.10553
2022-08-26T05:25:09.984Z,19.10553
2022-08-26T05:26:23.000Z,19.075317
2022-08-26T05:27:28.318Z,19.115601
2022-08-26T05:28:37.989Z,19.145813
2022-08-26T05:29:45.645Z,19.206238
2022-08-26T05:30:55.347Z,19.206238
2022-08-26T05:32:04.976Z,19.186096
2022-08-26T05:33:13.626Z,19.135742
2022-08-26T05:34:23.297Z,19.085388
2022-08-26T05:35:32.927Z,19.065247
2022-08-26T05:36:42.643Z,19.024963
2022-08-26T05:37:51.296Z,19.035034
2022-08-26T05:38:59.963Z,19.075317
2022-08-26T05:40:10.683Z,19.065247
2022-08-26T05:41:19.277Z,19.004822
2022-08-26T05:42:27.963Z,18.954468
2022-08-26T05:43:37.682Z,18.904114
2022-08-26T05:44:54.209Z,18.863831
2022-08-26T05:45:57.012Z,18.883972
2022-08-26T05:47:06.628Z,18.894043
2022-08-26T05:48:15.349Z,18.924255
2022-08-26T05:49:26.188Z,18.934326
2022-08-26T05:50:33.670Z,18.964539
2022-08-26T05:51:42.325Z,18.98468
2022-08-26T05:52:51.986Z,19.004822
2022-08-26T05:54:00.759Z,19.024963
2022-08-26T05:55:10.419Z,19.085388
2022-08-26T05:56:20.087Z,19.176025
2022-08-26T05:57:27.751Z,19.256592
2022-08-26T05:58:38.410Z,19.327087
2022-08-26T05:59:47.099Z,19.437866
2022-08-26T06:00:55.771Z,19.518433
2022-08-26T06:02:05.502Z,19.629211
2022-08-26T06:03:14.172Z,19.699707
2022-08-26T06:04:24.713Z,19.790344
2022-08-26T06:05:37.888Z,19.850769
2022-08-26T06:06:43.112Z,19.961548
2022-08-26T06:07:52.784Z,20.092468
2022-08-26T06:09:01.439Z,20.162964
2022-08-26T06:10:30.843Z,20.223389
2022-08-26T06:11:21.790Z,20.293884
2022-08-26T06:12:29.433Z,20.374451
2022-08-26T06:13:39.144Z,20.475159
2022-08-26T06:14:49.006Z,20.545654
2022-08-26T06:15:56.556Z,20.596008
2022-08-26T06:17:05.170Z,20.626221
2022-08-26T06:18:13.821Z,20.696716
2022-08-26T06:19:23.490Z,20.74707
2022-08-26T06:20:34.134Z,20.797424
2022-08-26T06:21:42.782Z,20.898132
2022-08-26T06:22:53.444Z,20.98877
2022-08-26T06:24:02.122Z,21.049194
2022-08-26T06:25:10.788Z,21.149902
2022-08-26T06:26:20.467Z,21.210327
2022-08-26T06:27:32.102Z,21.290894
2022-08-26T06:28:37.812Z,21.331177
2022-08-26T06:29:47.467Z,21.37146
2022-08-26T06:30:56.151Z,21.401672
2022-08-26T06:32:05.818Z,21.50238
2022-08-26T06:33:14.465Z,21.613159
2022-08-26T06:34:22.184Z,21.723938
2022-08-26T06:35:31.828Z,21.804504
2022-08-26T06:36:39.505Z,21.945496
2022-08-26T06:37:48.168Z,22.076416
2022-08-26T06:38:57.854Z,22.24762
2022-08-26T06:40:05.583Z,22.297974
2022-08-26T06:41:14.216Z,22.358398
2022-08-26T06:42:23.869Z,22.428894
2022-08-26T06:43:31.512Z,22.449036
2022-08-26T06:44:41.220Z,22.428894
2022-08-26T06:45:50.916Z,22.479248
2022-08-26T06:47:00.628Z,22.590027
2022-08-26T06:48:10.287Z,22.720947
2022-08-26T06:49:20.467Z,22.75116
2022-08-26T06:50:28.615Z,22.831726
2022-08-26T06:51:38.305Z,22.942505
2022-08-26T06:52:45.955Z,23.033142
2022-08-26T06:53:56.611Z,23.184204
2022-08-26T06:55:05.283Z,23.355408
2022-08-26T06:56:13.959Z,23.556824
2022-08-26T06:57:22.744Z,23.728027
2022-08-26T06:58:31.398Z,23.909302
2022-08-26T06:59:41.060Z,24.110718
2022-08-26T07:00:50.721Z,24.332275
2022-08-26T07:02:01.444Z,24.573975
2022-08-26T07:03:12.133Z,24.795532
2022-08-26T07:04:21.845Z,25.037231
2022-08-26T07:05:30.370Z,25.258789
2022-08-26T07:06:39.167Z,25.480347
2022-08-26T07:07:48.744Z,25.681763
2022-08-26T07:08:58.564Z,25.883179
2022-08-26T07:10:09.315Z,25.993958
2022-08-26T07:11:17.996Z,26.02417
2022-08-26T07:12:28.686Z,25.883179
2022-08-26T07:13:37.382Z,25.883179
2022-08-26T07:14:47.367Z,25.782471
2022-08-26T07:15:57.847Z,25.631409
2022-08-26T07:17:10.095Z,25.460205
2022-08-26T07:18:17.190Z,25.168152
2022-08-26T07:19:29.120Z,25.107727
2022-08-26T07:20:35.554Z,25.107727
2022-08-26T07:21:45.318Z,25.178223
2022-08-26T07:22:54.968Z,25.228577
2022-08-26T07:24:04.690Z,25.309143
2022-08-26T07:25:14.364Z,25.480347
2022-08-26T07:26:24.090Z,25.65155
2022-08-26T07:27:33.744Z,25.782471
2022-08-26T07:28:42.520Z,25.90332
2022-08-26T07:29:50.263Z,25.913391
2022-08-26T07:31:00.004Z,25.933533
2022-08-26T07:32:09.652Z,26.004028
2022-08-26T07:33:19.331Z,26.054382
2022-08-26T07:34:29.010Z,26.064453
2022-08-26T07:35:37.700Z,26.054382
2022-08-26T07:36:46.407Z,25.802612
2022-08-26T07:37:57.001Z,25.701904
2022-08-26T07:39:03.834Z,25.631409
2022-08-26T07:40:12.519Z,25.691833
2022-08-26T07:41:21.201Z,25.752258
2022-08-26T07:42:30.824Z,25.842896
2022-08-26T07:43:38.590Z,25.852966
2022-08-26T07:44:47.197Z,25.883179
2022-08-26T07:45:56.882Z,25.953674
2022-08-26T07:47:10.342Z,25.953674
2022-08-26T07:48:15.176Z,26.004028
2022-08-26T07:49:23.915Z,26.02417
2022-08-26T07:50:34.219Z,25.913391
2022-08-26T07:51:42.118Z,25.883179
2022-08-26T07:52:51.838Z,25.852966
2022-08-26T07:54:01.555Z,25.842896
2022-08-26T07:55:12.280Z,25.812683
2022-08-26T07:56:19.954Z,25.842896
2022-08-26T07:57:29.638Z,25.852966
2022-08-26T07:58:39.299Z,25.852966
2022-08-26T07:59:50.020Z,25.732117
2022-08-26T08:00:59.956Z,25.631409
2022-08-26T08:02:09.607Z,25.65155
2022-08-26T08:03:18.333Z,25.661621
2022-08-26T08:04:28.075Z,25.722046
2022-08-26T08:05:37.851Z,25.591125
2022-08-26T08:06:47.618Z,25.591125
2022-08-26T08:08:17.402Z,25.65155
2022-08-26T08:09:08.070Z,25.631409
2022-08-26T08:10:17.802Z,25.480347
2022-08-26T08:11:27.507Z,25.258789
2022-08-26T08:12:37.346Z,25.057373
2022-08-26T08:13:47.301Z,25.007019
2022-08-26T08:14:57.032Z,25.067444
2022-08-26T08:16:06.767Z,25.107727
2022-08-26T08:17:15.494Z,25.077515
2022-08-26T08:18:24.673Z,25.137939
2022-08-26T08:19:36.900Z,25.228577
2022-08-26T08:20:47.588Z,25.329285
2022-08-26T08:21:54.915Z,25.39978
2022-08-26T08:23:03.652Z,25.440063
2022-08-26T08:24:12.369Z,25.440063
2022-08-26T08:25:22.098Z,25.510559
2022-08-26T08:26:30.779Z,25.581055
2022-08-26T08:27:38.524Z,25.480347
2022-08-26T08:28:48.235Z,25.480347
2022-08-26T08:29:57.016Z,25.480347
2022-08-26T08:31:06.794Z,25.470276
2022-08-26T08:32:16.454Z,25.460205
2022-08-26T08:33:24.130Z,25.460205
2022-08-26T08:34:33.899Z,25.480347
2022-08-26T08:35:43.579Z,25.530701
2022-08-26T08:36:53.797Z,25.631409
2022-08-26T08:38:04.096Z,25.601196
2022-08-26T08:39:12.795Z,25.631409
2022-08-26T08:40:22.529Z,25.621338
2022-08-26T08:41:32.254Z,25.631409
2022-08-26T08:42:40.043Z,25.65155
2022-08-26T08:43:49.669Z,25.691833
2022-08-26T08:44:59.426Z,25.732117
2022-08-26T08:46:08.279Z,25.832825
2022-08-26T08:47:18.082Z,25.812683
2022-08-26T08:48:27.703Z,25.852966
2022-08-26T08:49:36.500Z,25.782471
2022-08-26T08:50:46.225Z,25.722046
2022-08-26T08:51:55.001Z,25.591125
2022-08-26T08:53:05.766Z,25.460205
2022-08-26T08:54:15.478Z,25.228577
2022-08-26T08:55:24.148Z,25.137939
2022-08-26T08:56:34.971Z,25.007019
2022-08-26T08:57:45.727Z,24.886169
2022-08-26T08:58:56.659Z,24.775391
2022-08-26T09:00:04.235Z,24.725037
2022-08-26T09:01:12.019Z,24.735107
2022-08-26T09:02:20.796Z,24.835815
2022-08-26T09:03:30.466Z,24.916382
2022-08-26T09:04:39.144Z,25.067444
2022-08-26T09:05:49.010Z,25.178223
2022-08-26T09:08:07.656Z,25.510559
2022-08-26T09:09:15.847Z,25.510559
2022-08-26T09:10:23.620Z,25.550842
2022-08-26T09:11:33.346Z,25.591125
2022-08-26T09:12:43.047Z,25.631409
2022-08-26T09:13:50.761Z,25.732117
2022-08-26T09:15:01.474Z,25.722046
2022-08-26T09:16:09.980Z,25.732117
2022-08-26T09:17:18.871Z,25.802612
2022-08-26T09:18:28.557Z,25.832825
2022-08-26T09:19:37.298Z,25.852966
2022-08-26T09:20:47.010Z,25.933533
2022-08-26T09:21:55.809Z,25.983887
2022-08-26T09:23:06.523Z,25.963745
2022-08-26T09:24:18.125Z,26.004028
2022-08-26T09:25:27.903Z,26.064453
2022-08-26T09:26:36.548Z,26.074524
2022-08-26T09:27:46.299Z,26.14502
2022-08-26T09:28:55.015Z,26.185303
2022-08-26T09:30:04.744Z,26.286011
2022-08-26T09:31:13.516Z,26.366577
2022-08-26T09:32:21.285Z,26.356506
2022-08-26T09:33:30.025Z,26.427002
2022-08-26T09:34:38.710Z,26.437073
2022-08-26T09:35:48.715Z,26.447144
2022-08-26T09:36:58.219Z,26.40686
2022-08-26T09:38:09.097Z,26.507568
2022-08-26T09:39:17.681Z,26.598206
2022-08-26T09:40:26.991Z,26.729126
2022-08-26T09:41:35.232Z,26.880188
2022-08-26T09:42:44.968Z,26.970825
2022-08-26T09:43:52.632Z,27.101746
2022-08-26T09:45:02.303Z,27.121887
2022-08-26T09:46:11.054Z,27.111816
2022-08-26T09:47:20.685Z,27.071533
2022-08-26T09:48:30.351Z,27.101746
2022-08-26T09:49:41.057Z,27.101746
2022-08-26T09:50:51.721Z,27.111816
2022-08-26T09:52:00.402Z,27.111816
2022-08-26T09:53:12.744Z,27.172241
2022-08-26T09:54:20.831Z,27.202454
2022-08-26T09:55:31.385Z,27.252808
2022-08-26T09:56:40.098Z,27.293091
2022-08-26T09:57:49.802Z,27.353516
2022-08-26T09:59:00.492Z,27.373657
2022-08-26T10:00:11.149Z,27.363586
2022-08-26T10:01:19.851Z,27.484436
2022-08-26T10:02:29.518Z,27.675781
2022-08-26T10:03:39.234Z,27.947693
2022-08-26T10:04:47.903Z,28.229675
2022-08-26T10:05:57.627Z,28.471375
2022-08-26T10:07:07.320Z,28.511658
2022-08-26T10:08:15.990Z,28.491516
2022-08-26T10:09:25.658Z,28.511658
2022-08-26T10:10:34.323Z,28.602295
2022-08-26T10:11:44.977Z,28.703003
2022-08-26T10:12:54.641Z,28.723145
2022-08-26T10:14:02.348Z,28.783569
2022-08-26T10:15:09.997Z,28.753357
2022-08-26T10:16:19.674Z,28.823853
2022-08-26T10:17:30.846Z,28.723145
2022-08-26T10:18:39.021Z,28.783569
2022-08-26T10:19:55.595Z,28.894348
2022-08-26T10:20:59.421Z,28.843994
2022-08-26T10:22:09.121Z,28.843994
2022-08-26T10:23:16.787Z,29.035339
2022-08-26T10:24:26.470Z,29.125977
2022-08-26T10:25:35.136Z,29.005127
2022-08-26T10:26:42.783Z,28.984985
2022-08-26T10:27:53.722Z,29.115906
2022-08-26T10:29:02.110Z,29.266968
2022-08-26T10:30:10.755Z,29.448242
2022-08-26T10:31:20.524Z,29.750366
2022-08-26T10:32:30.157Z,30.092773
2022-08-26T10:33:39.788Z,30.435181
2022-08-26T10:34:49.456Z,30.67688
2022-08-26T10:35:59.155Z,30.767517
2022-08-26T10:37:10.862Z,30.898438
2022-08-26T10:38:18.454Z,30.989075
2022-08-26T10:39:27.109Z,31.089783
2022-08-26T10:40:36.869Z,31.220703
2022-08-26T10:41:44.548Z,31.341553
2022-08-26T10:42:53.305Z,31.220703
2022-08-26T10:44:03.957Z,31.240845
2022-08-26T10:45:14.818Z,31.55304
2022-08-26T10:46:23.301Z,31.845093
2022-08-26T10:47:32.978Z,31.784668
2022-08-26T10:48:40.663Z,31.915588
2022-08-26T10:49:51.364Z,32.06665
2022-08-26T10:51:00.093Z,32.338562
2022-08-26T10:52:12.185Z,32.650757
2022-08-26T10:53:19.492Z,32.872314
2022-08-26T10:54:30.191Z,33.053589
2022-08-26T10:55:39.852Z,33.154297
2022-08-26T10:56:48.523Z,33.355713
2022-08-26T10:57:58.180Z,33.587341
2022-08-26T10:59:10.320Z,33.738403
2022-08-26T11:00:18.512Z,33.456421
2022-08-26T11:01:28.266Z,33.355713
2022-08-26T11:02:38.822Z,33.426208
2022-08-26T11:03:48.524Z,33.607483
2022-08-26T11:04:59.136Z,33.768616
2022-08-26T11:06:09.935Z,33.647766
2022-08-26T11:07:18.602Z,33.677979
2022-08-26T11:08:28.303Z,33.829041
2022-08-26T11:09:37.976Z,33.526917
2022-08-26T11:10:46.639Z,33.416138
2022-08-26T11:11:57.336Z,33.124084
2022-08-26T11:13:08.284Z,32.872314
2022-08-26T11:14:17.664Z,32.872314
2022-08-26T11:15:28.363Z,32.650757
2022-08-26T11:16:40.159Z,32.288208
2022-08-26T11:17:47.824Z,32.207642
2022-08-26T11:18:56.562Z,32.06665
2022-08-26T11:20:09.124Z,32.036438
2022-08-26T11:21:15.969Z,31.925659
2022-08-26T11:22:26.640Z,31.714172
2022-08-26T11:23:36.374Z,31.442261
2022-08-26T11:24:45.198Z,31.43219
2022-08-26T11:25:53.926Z,31.56311
2022-08-26T11:27:04.617Z,31.492615
2022-08-26T11:28:12.336Z,31.623535
2022-08-26T11:29:22.079Z,31.845093
2022-08-26T11:30:31.824Z,32.086792
2022-08-26T11:31:41.610Z,32.207642
2022-08-26T11:32:51.305Z,32.1875
2022-08-26T11:34:00.181Z,32.30835
2022-08-26T11:35:10.780Z,32.479553
2022-08-26T11:36:20.452Z,32.680969
2022-08-26T11:37:29.258Z,32.580261
2022-08-26T11:38:39.994Z,32.268066
2022-08-26T11:39:53.939Z,32.086792
2022-08-26T11:41:00.039Z,32.217712
2022-08-26T11:42:09.793Z,32.298279
2022-08-26T11:43:18.489Z,32.217712
2022-08-26T11:44:28.302Z,32.06665
2022-08-26T11:45:37.254Z,32.06665
2022-08-26T11:46:46.810Z,31.955872
2022-08-26T11:47:56.529Z,32.026367
2022-08-26T11:49:04.336Z,32.227783
2022-08-26T11:50:12.983Z,32.338562
2022-08-26T11:51:22.764Z,32.650757
2022-08-26T11:52:31.603Z,33.003235
2022-08-26T11:53:41.328Z,33.295288
2022-08-26T11:54:50.017Z,33.456421
2022-08-26T11:55:59.784Z,33.335571
2022-08-26T11:57:11.886Z,33.07373
2022-08-26T11:58:18.299Z,32.741394
2022-08-26T11:59:28.034Z,32.30835
2022-08-26T12:00:37.706Z,32.026367
2022-08-26T12:01:47.408Z,31.55304
2022-08-26T12:02:57.121Z,31.391907
2022-08-26T12:04:07.335Z,31.472473
2022-08-26T12:05:17.040Z,31.522827
2022-08-26T12:06:27.853Z,31.714172
2022-08-26T12:07:37.573Z,31.955872
2022-08-26T12:08:47.350Z,32.459412
2022-08-26T12:09:57.359Z,32.932739
2022-08-26T12:11:07.050Z,33.365784
2022-08-26T12:12:16.809Z,33.667908
2022-08-26T12:13:26.646Z,33.677979
2022-08-26T12:14:35.215Z,33.758545
2022-08-26T12:15:45.041Z,33.647766
2022-08-26T12:16:55.778Z,33.496704
2022-08-26T12:18:04.476Z,33.526917
2022-08-26T12:19:14.150Z,33.496704
2022-08-26T12:20:23.887Z,33.607483
2022-08-26T12:21:34.717Z,33.798828
2022-08-26T12:22:43.441Z,34.030457
2022-08-26T12:23:53.033Z,34.302368
2022-08-26T12:25:02.791Z,34.423218
2022-08-26T12:26:11.515Z,34.382935
2022-08-26T12:27:21.334Z,34.32251
2022-08-26T12:28:31.060Z,34.393005
2022-08-26T12:29:38.778Z,34.332581
2022-08-26T12:30:49.502Z,34.393005
2022-08-26T12:32:00.280Z,34.614563
2022-08-26T12:33:21.995Z,34.674988
2022-08-26T12:34:19.676Z,34.674988
2022-08-26T12:35:27.409Z,34.775696
2022-08-26T12:36:36.198Z,34.846191
2022-08-26T12:37:45.891Z,34.876404
2022-08-26T12:38:58.073Z,34.765625
2022-08-26T12:40:04.457Z,34.57428
2022-08-26T12:41:14.283Z,34.513855
2022-08-26T12:42:23.074Z,34.302368
2022-08-26T12:43:32.804Z,34.252014
2022-08-26T12:44:40.676Z,34.181519
2022-08-26T12:45:50.394Z,34.030457
2022-08-26T12:47:00.129Z,34.030457
2022-08-26T12:48:08.070Z,34.171448
2022-08-26T12:49:17.509Z,34.181519
2022-08-26T12:50:27.279Z,33.959961
2022-08-26T12:51:35.986Z,33.959961
2022-08-26T12:52:45.685Z,33.395996
2022-08-26T12:53:54.367Z,33.516846
2022-08-26T12:55:03.052Z,33.547058
2022-08-26T12:56:12.904Z,33.526917
2022-08-26T12:57:21.681Z,33.496704
2022-08-26T12:58:31.379Z,33.526917
2022-08-26T12:59:41.096Z,33.688049
2022-08-26T13:00:48.956Z,33.647766
2022-08-26T13:01:58.626Z,33.808899
2022-08-26T13:03:07.429Z,33.667908
2022-08-26T13:04:16.951Z,33.798828
2022-08-26T13:05:26.622Z,33.919678
2022-08-26T13:06:36.312Z,34.171448
2022-08-26T13:07:46.019Z,34.030457
2022-08-26T13:08:54.727Z,34.060669
2022-08-26T13:10:03.387Z,34.030457
2022-08-26T13:11:12.074Z,33.839111
2022-08-26T13:12:19.747Z,33.526917
2022-08-26T13:13:28.462Z,33.466492
2022-08-26T13:14:39.245Z,33.496704